Archival Weather

Chicago O'Hare International

Chicago, Illinois (KORD)

Report from: Wednesday, January 25, 2023 1:51 AM CST
Current time: Monday, February 6, 2023 1:07 AM CST

Current weather
Weather history
Weather forecast

Present weatherLight snow
Temperature0.0°C (32.0°F)
Wind chill-3.1°C (26.4°F)
Dew point-2.2°C (28.0°F)
Winds 5 kts (2.6 m/s, 5.8 mph) East-Southeast (120°)
Visibility1 mi. (1.6 km)
Clouds Ceiling: Overcast 1,100 ft. (335 m)
Altimeter29.97 in.Hg (1015 mB)
Precipitiation0.01 in. (0 mm)
Precip. events Snow began 1:26 AM
Relative humidity85 %
Density altitude-1,810 ft. (-552 m)
Sea-level pressure101.5 kPa (1015 mB, 29.98 in.Hg)
Remarks Automated weather observing station with precipitation discriminator
Flight conditions Instrument Meteorological Conditions
Raw dataKORD 250751Z 12005KT 1SM R10L/P6000FT -SN OVC011 00/M02 A2997 RMK AO2 SNB26 SLP153 P0001 T00001022
An error has occurred. This application may no longer respond until reloaded. Reload 🗙